sensor_id;sensor_type;location;lat;lon;timestamp;temperature;humidity
12959;DHT22;6544;51.666;6.634;2023-04-03T00:00:37;4.50;99.90
12959;DHT22;6544;51.666;6.634;2023-04-03T00:03:04;4.60;99.90
12959;DHT22;6544;51.666;6.634;2023-04-03T00:05:31;4.60;99.90
12959;DHT22;6544;51.666;6.634;2023-04-03T00:07:59;4.50;99.90
12959;DHT22;6544;51.666;6.634;2023-04-03T00:10:27;4.50;99.90
12959;DHT22;6544;51.666;6.634;2023-04-03T00:12:54;4.60;99.90
12959;DHT22;6544;51.666;6.634;2023-04-03T00:15:27;4.50;99.90
12959;DHT22;6544;51.666;6.634;2023-04-03T00:17:53;4.50;99.90
12959;DHT22;6544;51.666;6.634;2023-04-03T00:20:20;4.50;99.90
12959;DHT22;6544;51.666;6.634;2023-04-03T00:22:47;4.40;99.90
12959;DHT22;6544;51.666;6.634;2023-04-03T00:25:16;4.40;99.90
12959;DHT22;6544;51.666;6.634;2023-04-03T00:27:43;4.30;99.90
12959;DHT22;6544;51.666;6.634;2023-04-03T00:30:12;4.30;99.90
12959;DHT22;6544;51.666;6.634;2023-04-03T00:32:39;4.30;99.90
12959;DHT22;6544;51.666;6.634;2023-04-03T00:35:07;4.30;99.90
12959;DHT22;6544;51.666;6.634;2023-04-03T00:37:34;4.30;99.90
12959;DHT22;6544;51.666;6.634;2023-04-03T00:40:01;4.20;99.90
12959;DHT22;6544;51.666;6.634;2023-04-03T00:42:30;4.20;99.90
12959;DHT22;6544;51.666;6.634;2023-04-03T00:45:30;4.10;99.90
12959;DHT22;6544;51.666;6.634;2023-04-03T00:47:57;4.10;99.90
12959;DHT22;6544;51.666;6.634;2023-04-03T00:50:27;4.10;99.90
12959;DHT22;6544;51.666;6.634;2023-04-03T00:52:54;4.10;99.90
12959;DHT22;6544;51.666;6.634;2023-04-03T00:55:22;4.10;99.90
12959;DHT22;6544;51.666;6.634;2023-04-03T00:57:51;4.10;99.90
12959;DHT22;6544;51.666;6.634;2023-04-03T01:00:20;4.10;99.90
12959;DHT22;6544;51.666;6.634;2023-04-03T01:02:47;4.10;99.90
12959;DHT22;6544;51.666;6.634;2023-04-03T01:05:16;4.20;99.90
12959;DHT22;6544;51.666;6.634;2023-04-03T01:07:44;4.10;99.90
12959;DHT22;6544;51.666;6.634;2023-04-03T01:10:13;4.10;99.90
12959;DHT22;6544;51.666;6.634;2023-04-03T01:12:43;4.10;99.90
12959;DHT22;6544;51.666;6.634;2023-04-03T01:15:13;4.10;99.90
12959;DHT22;6544;51.666;6.634;2023-04-03T01:17:42;4.10;99.90
12959;DHT22;6544;51.666;6.634;2023-04-03T01:23:30;4.00;99.90
12959;DHT22;6544;51.666;6.634;2023-04-03T01:25:59;3.90;99.90
12959;DHT22;6544;51.666;6.634;2023-04-03T01:28:28;3.90;99.90
12959;DHT22;6544;51.666;6.634;2023-04-03T01:31:02;3.90;99.90
12959;DHT22;6544;51.666;6.634;2023-04-03T01:33:33;3.80;99.90
12959;DHT22;6544;51.666;6.634;2023-04-03T01:36:00;3.90;99.90
12959;DHT22;6544;51.666;6.634;2023-04-03T01:38:27;3.80;99.90
12959;DHT22;6544;51.666;6.634;2023-04-03T01:40:54;3.80;99.90
12959;DHT22;6544;51.666;6.634;2023-04-03T01:43:21;3.80;99.90
12959;DHT22;6544;51.666;6.634;2023-04-03T01:45:48;3.80;99.90
12959;DHT22;6544;51.666;6.634;2023-04-03T01:48:15;3.70;99.90
12959;DHT22;6544;51.666;6.634;2023-04-03T01:50:44;3.70;99.90
12959;DHT22;6544;51.666;6.634;2023-04-03T01:53:12;3.80;99.90
12959;DHT22;6544;51.666;6.634;2023-04-03T01:55:39;3.70;99.90
12959;DHT22;6544;51.666;6.634;2023-04-03T01:58:06;3.70;99.90
12959;DHT22;6544;51.666;6.634;2023-04-03T02:00:33;3.70;99.90
12959;DHT22;6544;51.666;6.634;2023-04-03T02:03:00;3.70;99.90
12959;DHT22;6544;51.666;6.634;2023-04-03T02:05:27;3.70;99.90
12959;DHT22;6544;51.666;6.634;2023-04-03T02:07:55;3.70;99.90
12959;DHT22;6544;51.666;6.634;2023-04-03T02:10:22;3.80;99.90
12959;DHT22;6544;51.666;6.634;2023-04-03T02:12:49;3.70;99.90
12959;DHT22;6544;51.666;6.634;2023-04-03T02:15:16;3.70;99.90
12959;DHT22;6544;51.666;6.634;2023-04-03T02:17:52;3.70;99.90
12959;DHT22;6544;51.666;6.634;2023-04-03T02:20:19;3.90;99.90
12959;DHT22;6544;51.666;6.634;2023-04-03T02:22:46;3.90;99.90
12959;DHT22;6544;51.666;6.634;2023-04-03T02:25:15;3.90;99.90
12959;DHT22;6544;51.666;6.634;2023-04-03T02:27:43;3.90;99.90
12959;DHT22;6544;51.666;6.634;2023-04-03T02:30:10;3.90;99.90
12959;DHT22;6544;51.666;6.634;2023-04-03T02:32:38;3.80;99.90
12959;DHT22;6544;51.666;6.634;2023-04-03T02:35:07;3.80;99.90
12959;DHT22;6544;51.666;6.634;2023-04-03T02:37:33;3.90;99.90
12959;DHT22;6544;51.666;6.634;2023-04-03T02:40:01;3.70;99.90
12959;DHT22;6544;51.666;6.634;2023-04-03T02:42:30;3.80;99.90
12959;DHT22;6544;51.666;6.634;2023-04-03T02:44:57;3.80;99.90
12959;DHT22;6544;51.666;6.634;2023-04-03T02:47:25;3.80;99.90
12959;DHT22;6544;51.666;6.634;2023-04-03T02:49:52;3.80;99.90
12959;DHT22;6544;51.666;6.634;2023-04-03T02:52:19;3.80;99.90
12959;DHT22;6544;51.666;6.634;2023-04-03T02:54:46;3.70;99.90
12959;DHT22;6544;51.666;6.634;2023-04-03T02:57:13;3.60;99.90
12959;DHT22;6544;51.666;6.634;2023-04-03T02:59:42;3.60;99.90
12959;DHT22;6544;51.666;6.634;2023-04-03T03:02:10;3.70;99.90
12959;DHT22;6544;51.666;6.634;2023-04-03T03:04:37;3.70;99.90
12959;DHT22;6544;51.666;6.634;2023-04-03T03:07:04;3.70;99.90
12959;DHT22;6544;51.666;6.634;2023-04-03T03:09:31;3.70;99.90
12959;DHT22;6544;51.666;6.634;2023-04-03T03:11:58;3.70;99.90
12959;DHT22;6544;51.666;6.634;2023-04-03T03:14:25;3.70;99.90
12959;DHT22;6544;51.666;6.634;2023-04-03T03:16:53;3.70;99.90
12959;DHT22;6544;51.666;6.634;2023-04-03T03:19:20;3.80;99.90
12959;DHT22;6544;51.666;6.634;2023-04-03T03:21:47;3.70;99.90
12959;DHT22;6544;51.666;6.634;2023-04-03T03:24:14;3.70;99.90
12959;DHT22;6544;51.666;6.634;2023-04-03T03:26:41;3.60;99.90
12959;DHT22;6544;51.666;6.634;2023-04-03T03:29:08;3.60;99.90
12959;DHT22;6544;51.666;6.634;2023-04-03T03:31:35;3.60;99.90
12959;DHT22;6544;51.666;6.634;2023-04-03T03:34:03;3.60;99.90
12959;DHT22;6544;51.666;6.634;2023-04-03T03:36:30;3.60;99.90
12959;DHT22;6544;51.666;6.634;2023-04-03T03:38:57;3.50;99.90
12959;DHT22;6544;51.666;6.634;2023-04-03T03:41:26;3.40;99.90
12959;DHT22;6544;51.666;6.634;2023-04-03T03:43:52;3.40;99.90
12959;DHT22;6544;51.666;6.634;2023-04-03T03:46:19;3.30;99.90
12959;DHT22;6544;51.666;6.634;2023-04-03T03:48:46;3.40;99.90
12959;DHT22;6544;51.666;6.634;2023-04-03T03:51:15;3.40;99.90
12959;DHT22;6544;51.666;6.634;2023-04-03T03:53:42;3.40;99.90
12959;DHT22;6544;51.666;6.634;2023-04-03T03:56:09;3.30;99.90
12959;DHT22;6544;51.666;6.634;2023-04-03T03:58:36;3.40;99.90
12959;DHT22;6544;51.666;6.634;2023-04-03T04:01:04;3.40;99.90
12959;DHT22;6544;51.666;6.634;2023-04-03T04:03:32;3.40;99.90
12959;DHT22;6544;51.666;6.634;2023-04-03T04:05:58;3.30;99.90
12959;DHT22;6544;51.666;6.634;2023-04-03T04:08:27;3.30;99.90
12959;DHT22;6544;51.666;6.634;2023-04-03T04:10:54;3.30;99.90
12959;DHT22;6544;51.666;6.634;2023-04-03T04:13:21;3.20;99.90
12959;DHT22;6544;51.666;6.634;2023-04-03T04:15:48;3.20;99.90
12959;DHT22;6544;51.666;6.634;2023-04-03T04:18:14;3.20;99.90
12959;DHT22;6544;51.666;6.634;2023-04-03T04:20:41;3.20;99.90
12959;DHT22;6544;51.666;6.634;2023-04-03T04:23:08;3.20;99.90
12959;DHT22;6544;51.666;6.634;2023-04-03T04:25:36;3.10;99.90
12959;DHT22;6544;51.666;6.634;2023-04-03T04:28:04;3.10;99.90
12959;DHT22;6544;51.666;6.634;2023-04-03T04:30:30;3.10;99.90
12959;DHT22;6544;51.666;6.634;2023-04-03T04:33:10;3.10;99.90
12959;DHT22;6544;51.666;6.634;2023-04-03T04:35:37;3.10;99.90
12959;DHT22;6544;51.666;6.634;2023-04-03T04:38:04;3.10;99.90
12959;DHT22;6544;51.666;6.634;2023-04-03T04:40:30;3.00;99.90
12959;DHT22;6544;51.666;6.634;2023-04-03T04:42:59;3.00;99.90
12959;DHT22;6544;51.666;6.634;2023-04-03T04:45:26;3.00;99.90
12959;DHT22;6544;51.666;6.634;2023-04-03T04:47:55;3.00;99.90
12959;DHT22;6544;51.666;6.634;2023-04-03T04:50:21;3.00;99.90
12959;DHT22;6544;51.666;6.634;2023-04-03T04:52:48;2.90;99.90
12959;DHT22;6544;51.666;6.634;2023-04-03T04:55:15;2.80;99.90
12959;DHT22;6544;51.666;6.634;2023-04-03T04:57:42;2.80;99.90
12959;DHT22;6544;51.666;6.634;2023-04-03T05:00:12;2.80;99.90
12959;DHT22;6544;51.666;6.634;2023-04-03T05:02:39;2.80;99.90
12959;DHT22;6544;51.666;6.634;2023-04-03T05:05:06;2.80;99.90
12959;DHT22;6544;51.666;6.634;2023-04-03T05:07:33;2.80;99.90
12959;DHT22;6544;51.666;6.634;2023-04-03T05:10:01;2.80;99.90
12959;DHT22;6544;51.666;6.634;2023-04-03T05:12:28;2.70;99.90
12959;DHT22;6544;51.666;6.634;2023-04-03T05:14:55;2.80;99.90
12959;DHT22;6544;51.666;6.634;2023-04-03T05:17:24;2.90;99.90
12959;DHT22;6544;51.666;6.634;2023-04-03T05:19:50;2.80;99.90
12959;DHT22;6544;51.666;6.634;2023-04-03T05:22:17;2.70;99.90
12959;DHT22;6544;51.666;6.634;2023-04-03T05:24:44;2.80;99.90
12959;DHT22;6544;51.666;6.634;2023-04-03T05:27:11;2.70;99.90
12959;DHT22;6544;51.666;6.634;2023-04-03T05:29:38;2.80;99.90
12959;DHT22;6544;51.666;6.634;2023-04-03T05:32:09;2.80;99.90
12959;DHT22;6544;51.666;6.634;2023-04-03T05:34:37;2.70;99.90
12959;DHT22;6544;51.666;6.634;2023-04-03T05:37:04;2.70;99.90
12959;DHT22;6544;51.666;6.634;2023-04-03T05:39:31;2.60;99.90
12959;DHT22;6544;51.666;6.634;2023-04-03T05:41:58;2.60;99.90
12959;DHT22;6544;51.666;6.634;2023-04-03T05:44:25;2.70;99.90
12959;DHT22;6544;51.666;6.634;2023-04-03T05:46:52;2.70;99.90
12959;DHT22;6544;51.666;6.634;2023-04-03T05:49:19;2.70;99.90
12959;DHT22;6544;51.666;6.634;2023-04-03T05:51:47;2.70;99.90
12959;DHT22;6544;51.666;6.634;2023-04-03T05:54:17;2.70;99.90
12959;DHT22;6544;51.666;6.634;2023-04-03T05:56:45;2.70;99.90
12959;DHT22;6544;51.666;6.634;2023-04-03T05:59:12;2.80;99.90
12959;DHT22;6544;51.666;6.634;2023-04-03T06:01:38;2.80;99.90
12959;DHT22;6544;51.666;6.634;2023-04-03T06:04:06;2.80;99.90
12959;DHT22;6544;51.666;6.634;2023-04-03T06:06:50;2.80;99.90
12959;DHT22;6544;51.666;6.634;2023-04-03T06:09:19;2.80;99.90
12959;DHT22;6544;51.666;6.634;2023-04-03T06:11:46;2.90;99.90
12959;DHT22;6544;51.666;6.634;2023-04-03T06:14:13;2.90;99.90
12959;DHT22;6544;51.666;6.634;2023-04-03T06:16:40;2.90;99.90
12959;DHT22;6544;51.666;6.634;2023-04-03T06:19:08;2.90;99.90
12959;DHT22;6544;51.666;6.634;2023-04-03T06:21:35;2.80;99.90
12959;DHT22;6544;51.666;6.634;2023-04-03T06:24:04;2.80;99.90
12959;DHT22;6544;51.666;6.634;2023-04-03T06:26:32;2.80;99.90
12959;DHT22;6544;51.666;6.634;2023-04-03T06:28:59;2.80;99.90
12959;DHT22;6544;51.666;6.634;2023-04-03T06:31:26;2.80;99.90
12959;DHT22;6544;51.666;6.634;2023-04-03T06:34:01;2.80;99.90
12959;DHT22;6544;51.666;6.634;2023-04-03T06:36:28;2.80;99.90
12959;DHT22;6544;51.666;6.634;2023-04-03T06:38:55;2.80;99.90
12959;DHT22;6544;51.666;6.634;2023-04-03T06:41:24;3.00;99.90
12959;DHT22;6544;51.666;6.634;2023-04-03T06:43:51;3.00;99.90
12959;DHT22;6544;51.666;6.634;2023-04-03T06:46:20;3.00;99.90
12959;DHT22;6544;51.666;6.634;2023-04-03T06:48:47;3.00;99.90
12959;DHT22;6544;51.666;6.634;2023-04-03T06:51:18;3.10;99.90
12959;DHT22;6544;51.666;6.634;2023-04-03T06:53:45;3.20;99.90
12959;DHT22;6544;51.666;6.634;2023-04-03T06:56:12;3.20;99.90
12959;DHT22;6544;51.666;6.634;2023-04-03T06:58:41;3.30;99.90
12959;DHT22;6544;51.666;6.634;2023-04-03T07:01:08;3.40;99.90
12959;DHT22;6544;51.666;6.634;2023-04-03T07:03:36;3.40;99.10
12959;DHT22;6544;51.666;6.634;2023-04-03T07:06:03;3.40;97.70
12959;DHT22;6544;51.666;6.634;2023-04-03T07:08:31;3.50;96.70
12959;DHT22;6544;51.666;6.634;2023-04-03T07:10:58;3.60;96.90
12959;DHT22;6544;51.666;6.634;2023-04-03T07:13:25;3.60;94.50
12959;DHT22;6544;51.666;6.634;2023-04-03T07:15:53;3.70;94.70
12959;DHT22;6544;51.666;6.634;2023-04-03T07:18:20;3.70;92.00
12959;DHT22;6544;51.666;6.634;2023-04-03T07:20:48;3.80;93.70
12959;DHT22;6544;51.666;6.634;2023-04-03T07:23:15;3.90;91.80
12959;DHT22;6544;51.666;6.634;2023-04-03T07:25:45;4.00;86.90
12959;DHT22;6544;51.666;6.634;2023-04-03T07:28:12;4.10;88.00
12959;DHT22;6544;51.666;6.634;2023-04-03T07:30:43;4.20;83.60
12959;DHT22;6544;51.666;6.634;2023-04-03T07:33:12;4.10;77.40
12959;DHT22;6544;51.666;6.634;2023-04-03T07:35:40;4.30;78.40
12959;DHT22;6544;51.666;6.634;2023-04-03T07:38:11;4.30;70.10
12959;DHT22;6544;51.666;6.634;2023-04-03T07:40:40;4.40;71.70
12959;DHT22;6544;51.666;6.634;2023-04-03T07:43:11;4.50;69.80
12959;DHT22;6544;51.666;6.634;2023-04-03T07:45:38;4.50;55.50
12959;DHT22;6544;51.666;6.634;2023-04-03T07:48:05;4.60;58.50
12959;DHT22;6544;51.666;6.634;2023-04-03T07:50:34;4.60;53.30
12959;DHT22;6544;51.666;6.634;2023-04-03T07:53:02;4.80;54.40
12959;DHT22;6544;51.666;6.634;2023-04-03T07:55:29;4.90;59.40
12959;DHT22;6544;51.666;6.634;2023-04-03T07:57:56;5.00;60.30
12959;DHT22;6544;51.666;6.634;2023-04-03T08:00:23;5.10;58.80
12959;DHT22;6544;51.666;6.634;2023-04-03T08:02:50;5.00;46.60
12959;DHT22;6544;51.666;6.634;2023-04-03T08:05:17;5.10;40.30
12959;DHT22;6544;51.666;6.634;2023-04-03T08:07:46;5.20;42.00
12959;DHT22;6544;51.666;6.634;2023-04-03T08:10:13;5.40;36.90
12959;DHT22;6544;51.666;6.634;2023-04-03T08:12:40;5.40;27.80
12959;DHT22;6544;51.666;6.634;2023-04-03T08:15:08;5.60;27.00
12959;DHT22;6544;51.666;6.634;2023-04-03T08:17:36;5.60;20.60
12959;DHT22;6544;51.666;6.634;2023-04-03T08:20:04;5.70;25.90
12959;DHT22;6544;51.666;6.634;2023-04-03T08:22:32;5.70;13.70
12959;DHT22;6544;51.666;6.634;2023-04-03T08:25:00;5.70;8.80
12959;DHT22;6544;51.666;6.634;2023-04-03T08:27:28;5.90;13.60
12959;DHT22;6544;51.666;6.634;2023-04-03T08:29:55;5.90;3.40
12959;DHT22;6544;51.666;6.634;2023-04-03T08:32:22;5.90;1.00
12959;DHT22;6544;51.666;6.634;2023-04-03T08:34:49;6.00;1.00
12959;DHT22;6544;51.666;6.634;2023-04-03T08:37:16;6.00;1.00
12959;DHT22;6544;51.666;6.634;2023-04-03T08:39:43;6.10;1.00
12959;DHT22;6544;51.666;6.634;2023-04-03T08:42:16;6.10;1.00
12959;DHT22;6544;51.666;6.634;2023-04-03T08:44:50;6.20;1.00
12959;DHT22;6544;51.666;6.634;2023-04-03T08:47:23;6.30;1.00
12959;DHT22;6544;51.666;6.634;2023-04-03T08:49:53;6.50;1.00
12959;DHT22;6544;51.666;6.634;2023-04-03T08:52:31;6.60;1.00
12959;DHT22;6544;51.666;6.634;2023-04-03T08:55:02;6.70;1.00
12959;DHT22;6544;51.666;6.634;2023-04-03T08:57:34;6.80;1.00
12959;DHT22;6544;51.666;6.634;2023-04-03T09:00:06;6.80;1.00
12959;DHT22;6544;51.666;6.634;2023-04-03T09:02:38;6.80;1.00
12959;DHT22;6544;51.666;6.634;2023-04-03T09:05:11;6.90;1.00
12959;DHT22;6544;51.666;6.634;2023-04-03T09:07:42;6.90;1.00
12959;DHT22;6544;51.666;6.634;2023-04-03T09:10:11;6.90;1.00
12959;DHT22;6544;51.666;6.634;2023-04-03T09:12:42;7.00;1.00
12959;DHT22;6544;51.666;6.634;2023-04-03T09:15:19;7.10;1.00
12959;DHT22;6544;51.666;6.634;2023-04-03T09:18:00;7.20;1.00
12959;DHT22;6544;51.666;6.634;2023-04-03T09:20:39;7.30;1.00
12959;DHT22;6544;51.666;6.634;2023-04-03T09:23:17;7.30;1.00
12959;DHT22;6544;51.666;6.634;2023-04-03T09:25:45;7.30;1.00
12959;DHT22;6544;51.666;6.634;2023-04-03T09:28:13;7.30;1.00
12959;DHT22;6544;51.666;6.634;2023-04-03T09:30:40;7.30;1.00
12959;DHT22;6544;51.666;6.634;2023-04-03T09:33:08;7.40;1.00
12959;DHT22;6544;51.666;6.634;2023-04-03T09:35:37;7.50;1.00
12959;DHT22;6544;51.666;6.634;2023-04-03T09:38:16;7.60;1.00
12959;DHT22;6544;51.666;6.634;2023-04-03T09:40:45;7.70;1.00
12959;DHT22;6544;51.666;6.634;2023-04-03T09:43:28;7.80;1.00
12959;DHT22;6544;51.666;6.634;2023-04-03T09:46:15;7.80;1.00
12959;DHT22;6544;51.666;6.634;2023-04-03T09:48:50;7.80;1.00
12959;DHT22;6544;51.666;6.634;2023-04-03T09:51:17;7.80;1.00
12959;DHT22;6544;51.666;6.634;2023-04-03T09:53:44;7.80;1.00
12959;DHT22;6544;51.666;6.634;2023-04-03T09:56:20;7.90;1.00
12959;DHT22;6544;51.666;6.634;2023-04-03T09:58:50;8.00;1.00
12959;DHT22;6544;51.666;6.634;2023-04-03T10:01:25;8.00;1.00
12959;DHT22;6544;51.666;6.634;2023-04-03T10:04:08;8.00;1.00
12959;DHT22;6544;51.666;6.634;2023-04-03T10:06:37;8.00;1.00
12959;DHT22;6544;51.666;6.634;2023-04-03T10:09:14;7.90;1.00
12959;DHT22;6544;51.666;6.634;2023-04-03T10:11:58;8.10;1.00
12959;DHT22;6544;51.666;6.634;2023-04-03T10:14:28;8.20;1.00
12959;DHT22;6544;51.666;6.634;2023-04-03T10:17:14;8.40;1.00
12959;DHT22;6544;51.666;6.634;2023-04-03T10:19:45;8.50;1.00
12959;DHT22;6544;51.666;6.634;2023-04-03T10:22:18;8.40;1.00
12959;DHT22;6544;51.666;6.634;2023-04-03T10:24:52;8.60;1.00
12959;DHT22;6544;51.666;6.634;2023-04-03T10:27:30;8.60;1.00
12959;DHT22;6544;51.666;6.634;2023-04-03T10:30:07;8.70;1.00
12959;DHT22;6544;51.666;6.634;2023-04-03T10:32:50;8.70;1.00
12959;DHT22;6544;51.666;6.634;2023-04-03T10:35:34;8.90;1.00
12959;DHT22;6544;51.666;6.634;2023-04-03T10:38:09;9.00;1.00
12959;DHT22;6544;51.666;6.634;2023-04-03T10:40:45;9.10;1.00
12959;DHT22;6544;51.666;6.634;2023-04-03T10:43:20;9.10;1.00
12959;DHT22;6544;51.666;6.634;2023-04-03T10:45:56;9.20;1.00
12959;DHT22;6544;51.666;6.634;2023-04-03T10:48:35;9.30;1.00
12959;DHT22;6544;51.666;6.634;2023-04-03T10:51:12;9.30;1.00
12959;DHT22;6544;51.666;6.634;2023-04-03T10:53:46;9.30;1.00
12959;DHT22;6544;51.666;6.634;2023-04-03T10:56:21;9.40;1.00
12959;DHT22;6544;51.666;6.634;2023-04-03T10:58:57;9.40;1.00
12959;DHT22;6544;51.666;6.634;2023-04-03T11:01:30;9.60;1.00
12959;DHT22;6544;51.666;6.634;2023-04-03T11:04:00;9.80;1.00
12959;DHT22;6544;51.666;6.634;2023-04-03T11:06:34;9.80;1.00
12959;DHT22;6544;51.666;6.634;2023-04-03T11:09:07;9.90;1.00
12959;DHT22;6544;51.666;6.634;2023-04-03T11:11:39;10.00;1.00
12959;DHT22;6544;51.666;6.634;2023-04-03T11:14:11;10.10;1.00
12959;DHT22;6544;51.666;6.634;2023-04-03T11:16:46;10.20;1.00
12959;DHT22;6544;51.666;6.634;2023-04-03T11:19:18;10.20;1.00
12959;DHT22;6544;51.666;6.634;2023-04-03T11:21:52;10.40;1.00
12959;DHT22;6544;51.666;6.634;2023-04-03T11:24:23;10.60;1.00
12959;DHT22;6544;51.666;6.634;2023-04-03T11:26:53;10.80;1.00
12959;DHT22;6544;51.666;6.634;2023-04-03T11:29:23;11.10;1.00
12959;DHT22;6544;51.666;6.634;2023-04-03T11:32:07;11.00;1.00
12959;DHT22;6544;51.666;6.634;2023-04-03T11:34:38;11.10;1.00
12959;DHT22;6544;51.666;6.634;2023-04-03T11:37:20;11.30;1.00
12959;DHT22;6544;51.666;6.634;2023-04-03T11:39:54;11.10;1.00
12959;DHT22;6544;51.666;6.634;2023-04-03T11:42:30;11.20;1.00
12959;DHT22;6544;51.666;6.634;2023-04-03T11:45:27;11.30;1.00
12959;DHT22;6544;51.666;6.634;2023-04-03T11:47:57;11.30;1.00
12959;DHT22;6544;51.666;6.634;2023-04-03T11:50:32;11.40;1.00
12959;DHT22;6544;51.666;6.634;2023-04-03T11:53:30;11.20;1.00
12959;DHT22;6544;51.666;6.634;2023-04-03T11:56:02;11.20;1.00
12959;DHT22;6544;51.666;6.634;2023-04-03T11:58:31;11.50;1.00
12959;DHT22;6544;51.666;6.634;2023-04-03T12:01:09;11.70;1.00
12959;DHT22;6544;51.666;6.634;2023-04-03T12:07:11;12.10;1.00
12959;DHT22;6544;51.666;6.634;2023-04-03T12:10:00;12.40;1.00
12959;DHT22;6544;51.666;6.634;2023-04-03T12:12:34;12.30;1.00
12959;DHT22;6544;51.666;6.634;2023-04-03T12:15:20;12.30;1.00
12959;DHT22;6544;51.666;6.634;2023-04-03T12:17:48;12.50;1.00
12959;DHT22;6544;51.666;6.634;2023-04-03T12:20:52;12.40;1.00
12959;DHT22;6544;51.666;6.634;2023-04-03T12:23:34;12.60;1.00
12959;DHT22;6544;51.666;6.634;2023-04-03T12:26:20;12.80;1.00
12959;DHT22;6544;51.666;6.634;2023-04-03T12:28:48;12.90;1.00
12959;DHT22;6544;51.666;6.634;2023-04-03T12:31:19;12.60;1.00
12959;DHT22;6544;51.666;6.634;2023-04-03T12:34:04;12.70;1.00
12959;DHT22;6544;51.666;6.634;2023-04-03T12:36:42;12.60;1.00
12959;DHT22;6544;51.666;6.634;2023-04-03T12:39:40;12.70;1.00
12959;DHT22;6544;51.666;6.634;2023-04-03T12:42:22;12.70;1.00
12959;DHT22;6544;51.666;6.634;2023-04-03T12:44:56;12.50;1.00
12959;DHT22;6544;51.666;6.634;2023-04-03T12:47:30;12.30;1.00
12959;DHT22;6544;51.666;6.634;2023-04-03T12:49:59;12.40;1.00
12959;DHT22;6544;51.666;6.634;2023-04-03T12:52:40;12.50;1.00
12959;DHT22;6544;51.666;6.634;2023-04-03T12:55:15;12.60;1.00
12959;DHT22;6544;51.666;6.634;2023-04-03T12:57:42;12.60;1.00
12959;DHT22;6544;51.666;6.634;2023-04-03T13:00:28;12.70;1.00
12959;DHT22;6544;51.666;6.634;2023-04-03T13:02:56;12.60;1.00
12959;DHT22;6544;51.666;6.634;2023-04-03T13:05:23;12.60;1.00
12959;DHT22;6544;51.666;6.634;2023-04-03T13:07:54;12.00;1.00
12959;DHT22;6544;51.666;6.634;2023-04-03T13:10:25;11.90;1.00
12959;DHT22;6544;51.666;6.634;2023-04-03T13:12:53;12.00;1.00
12959;DHT22;6544;51.666;6.634;2023-04-03T13:15:22;12.00;1.00
12959;DHT22;6544;51.666;6.634;2023-04-03T13:17:50;12.00;1.00
12959;DHT22;6544;51.666;6.634;2023-04-03T13:20:22;12.00;1.00
12959;DHT22;6544;51.666;6.634;2023-04-03T13:22:56;12.00;1.00
12959;DHT22;6544;51.666;6.634;2023-04-03T13:25:28;11.90;1.00
12959;DHT22;6544;51.666;6.634;2023-04-03T13:27:58;11.90;1.00
12959;DHT22;6544;51.666;6.634;2023-04-03T13:30:28;11.80;1.00
12959;DHT22;6544;51.666;6.634;2023-04-03T13:32:56;11.90;1.00
12959;DHT22;6544;51.666;6.634;2023-04-03T13:35:31;11.90;1.00
12959;DHT22;6544;51.666;6.634;2023-04-03T13:38:00;11.60;1.00
12959;DHT22;6544;51.666;6.634;2023-04-03T13:40:29;11.40;1.00
12959;DHT22;6544;51.666;6.634;2023-04-03T13:43:04;11.40;1.00
12959;DHT22;6544;51.666;6.634;2023-04-03T13:45:32;11.10;1.00
12959;DHT22;6544;51.666;6.634;2023-04-03T13:48:16;11.20;1.00
12959;DHT22;6544;51.666;6.634;2023-04-03T13:50:59;11.10;1.00
12959;DHT22;6544;51.666;6.634;2023-04-03T13:53:28;11.30;1.00
12959;DHT22;6544;51.666;6.634;2023-04-03T13:56:09;11.10;1.00
12959;DHT22;6544;51.666;6.634;2023-04-03T13:58:37;11.00;1.00
12959;DHT22;6544;51.666;6.634;2023-04-03T14:01:15;10.90;1.00
12959;DHT22;6544;51.666;6.634;2023-04-03T14:03:46;10.80;1.00
12959;DHT22;6544;51.666;6.634;2023-04-03T14:06:15;10.60;1.00
12959;DHT22;6544;51.666;6.634;2023-04-03T14:08:43;10.50;1.00
12959;DHT22;6544;51.666;6.634;2023-04-03T14:11:15;10.40;1.00
12959;DHT22;6544;51.666;6.634;2023-04-03T14:13:42;10.40;1.00
12959;DHT22;6544;51.666;6.634;2023-04-03T14:16:13;10.30;1.00
12959;DHT22;6544;51.666;6.634;2023-04-03T14:18:40;10.40;1.00
12959;DHT22;6544;51.666;6.634;2023-04-03T14:21:08;10.50;1.00
12959;DHT22;6544;51.666;6.634;2023-04-03T14:23:35;10.40;1.00
12959;DHT22;6544;51.666;6.634;2023-04-03T14:26:04;10.20;1.00
12959;DHT22;6544;51.666;6.634;2023-04-03T14:28:32;10.20;1.00
12959;DHT22;6544;51.666;6.634;2023-04-03T14:30:59;10.20;1.00
12959;DHT22;6544;51.666;6.634;2023-04-03T14:33:26;10.00;1.00
12959;DHT22;6544;51.666;6.634;2023-04-03T14:35:56;10.10;1.00
12959;DHT22;6544;51.666;6.634;2023-04-03T14:38:26;10.00;1.00
12959;DHT22;6544;51.666;6.634;2023-04-03T14:40:53;10.00;1.00
12959;DHT22;6544;51.666;6.634;2023-04-03T14:43:20;9.80;1.00
12959;DHT22;6544;51.666;6.634;2023-04-03T14:45:49;9.90;1.00
12959;DHT22;6544;51.666;6.634;2023-04-03T14:48:19;9.80;1.00
12959;DHT22;6544;51.666;6.634;2023-04-03T14:50:47;9.70;1.00
12959;DHT22;6544;51.666;6.634;2023-04-03T14:53:14;9.80;1.00
12959;DHT22;6544;51.666;6.634;2023-04-03T14:55:43;9.80;1.00
12959;DHT22;6544;51.666;6.634;2023-04-03T14:58:15;9.70;1.00
12959;DHT22;6544;51.666;6.634;2023-04-03T15:00:43;9.80;1.00
12959;DHT22;6544;51.666;6.634;2023-04-03T15:03:15;9.80;1.00
12959;DHT22;6544;51.666;6.634;2023-04-03T15:05:44;9.60;1.00
12959;DHT22;6544;51.666;6.634;2023-04-03T15:08:19;9.50;1.00
12959;DHT22;6544;51.666;6.634;2023-04-03T15:10:46;9.60;1.00
12959;DHT22;6544;51.666;6.634;2023-04-03T15:13:14;9.60;1.00
12959;DHT22;6544;51.666;6.634;2023-04-03T15:15:41;9.60;1.00
12959;DHT22;6544;51.666;6.634;2023-04-03T15:18:16;9.60;1.00
12959;DHT22;6544;51.666;6.634;2023-04-03T15:20:44;9.50;1.00
12959;DHT22;6544;51.666;6.634;2023-04-03T15:23:12;9.50;1.00
12959;DHT22;6544;51.666;6.634;2023-04-03T15:25:41;9.40;1.00
12959;DHT22;6544;51.666;6.634;2023-04-03T15:28:09;9.50;1.00
12959;DHT22;6544;51.666;6.634;2023-04-03T15:30:42;9.50;1.00
12959;DHT22;6544;51.666;6.634;2023-04-03T15:33:08;9.50;1.00
12959;DHT22;6544;51.666;6.634;2023-04-03T15:35:37;9.40;1.00
12959;DHT22;6544;51.666;6.634;2023-04-03T15:38:04;9.40;1.00
12959;DHT22;6544;51.666;6.634;2023-04-03T15:40:31;9.40;1.00
12959;DHT22;6544;51.666;6.634;2023-04-03T15:42:57;9.30;1.00
12959;DHT22;6544;51.666;6.634;2023-04-03T15:45:25;9.30;1.00
12959;DHT22;6544;51.666;6.634;2023-04-03T15:47:55;9.40;1.00
12959;DHT22;6544;51.666;6.634;2023-04-03T15:50:22;9.40;1.00
12959;DHT22;6544;51.666;6.634;2023-04-03T15:52:51;9.30;1.00
12959;DHT22;6544;51.666;6.634;2023-04-03T15:55:20;9.30;1.00
12959;DHT22;6544;51.666;6.634;2023-04-03T15:57:50;9.30;1.00
12959;DHT22;6544;51.666;6.634;2023-04-03T16:00:17;9.30;1.00
12959;DHT22;6544;51.666;6.634;2023-04-03T16:02:45;9.30;1.00
12959;DHT22;6544;51.666;6.634;2023-04-03T16:05:13;9.30;1.00
12959;DHT22;6544;51.666;6.634;2023-04-03T16:07:43;9.40;1.00
12959;DHT22;6544;51.666;6.634;2023-04-03T16:10:14;9.30;1.00
12959;DHT22;6544;51.666;6.634;2023-04-03T16:12:41;9.30;1.00
12959;DHT22;6544;51.666;6.634;2023-04-03T16:15:09;9.20;1.00
12959;DHT22;6544;51.666;6.634;2023-04-03T16:17:39;9.10;1.00
12959;DHT22;6544;51.666;6.634;2023-04-03T16:20:09;9.10;1.00
12959;DHT22;6544;51.666;6.634;2023-04-03T16:22:37;9.00;1.00
12959;DHT22;6544;51.666;6.634;2023-04-03T16:25:05;9.00;1.00
12959;DHT22;6544;51.666;6.634;2023-04-03T16:27:34;9.00;1.00
12959;DHT22;6544;51.666;6.634;2023-04-03T16:30:01;9.00;1.00
12959;DHT22;6544;51.666;6.634;2023-04-03T16:32:30;8.80;1.00